Namaka, Canada
Current Conditions -  °F | °C
As of 3:00 AM on Saturday 29 Nov 2014 (Local Time) from CYYC Reporting Station
Blowing Snow Blowing Snow  
Wind Chill: -33°   Ceiling: 6800
Heat Index: -9°   Visibility: 4mi
Dew Point: -18°   Wind: 18mph
Humidity: 65%   Direction: 350°N
Pressure: 29.7"   Gusts: NA
Location:  50.96°N, 113.29°W
Report Text: CYYC 291000Z 35016KT 4SM BLSN SCT039 OVC068 M23/M28 A2970 RMK SC3AC5 SLP164
Loading
Personal Weather Stations






























Interactive Weather Map New forecast layout! Learn more

10-Day Weather Forecast

Advertisements
Track Severe Weather on mobile